createdAt,value
2018-11-07T00:00:58.620Z,9.41
2018-11-07T00:02:51.569Z,9.45
2018-11-07T00:03:51.457Z,9.45
2018-11-07T00:05:43.541Z,9.45
2018-11-07T00:06:43.267Z,9.44
2018-11-07T00:08:35.163Z,9.42
2018-11-07T00:09:35.062Z,9.38
2018-11-07T00:11:26.957Z,9.44
2018-11-07T00:12:26.833Z,9.49
2018-11-07T00:14:19.697Z,9.53
2018-11-07T00:15:19.614Z,9.52
2018-11-07T00:17:11.539Z,9.53
2018-11-07T00:18:11.438Z,9.53
2018-11-07T00:20:03.334Z,9.55
2018-11-07T00:21:03.148Z,9.52
2018-11-07T00:22:55.189Z,9.55
2018-11-07T00:23:55.168Z,9.58
2018-11-07T00:25:47.095Z,9.62
2018-11-07T00:26:46.825Z,9.59
2018-11-07T00:28:38.687Z,9.58
2018-11-07T00:29:38.597Z,9.50
2018-11-07T00:31:30.645Z,9.60
2018-11-07T00:32:30.469Z,9.62
2018-11-07T00:34:22.249Z,9.56
2018-11-07T00:35:22.214Z,9.63
2018-11-07T00:37:15.190Z,9.70
2018-11-07T00:38:15.005Z,9.67
2018-11-07T00:40:07.051Z,9.71
2018-11-07T00:41:07.058Z,9.70
2018-11-07T00:42:58.836Z,9.70
2018-11-07T00:43:58.877Z,9.65
2018-11-07T00:45:50.562Z,9.67
2018-11-07T00:46:50.504Z,9.59
2018-11-07T00:48:42.499Z,9.59
2018-11-07T00:49:42.290Z,9.56
2018-11-07T00:51:34.425Z,9.56
2018-11-07T00:52:34.331Z,9.60
2018-11-07T00:54:26.310Z,9.55
2018-11-07T00:55:26.261Z,9.52
2018-11-07T00:57:18.092Z,9.49
2018-11-07T00:58:18.038Z,9.44
2018-11-07T01:00:09.862Z,9.52
2018-11-07T01:01:09.748Z,9.41
2018-11-07T01:03:01.751Z,9.44
2018-11-07T01:04:01.592Z,9.44
2018-11-07T01:05:53.511Z,9.35
2018-11-07T01:06:53.442Z,9.32
2018-11-07T01:08:46.239Z,9.15
2018-11-07T01:09:46.293Z,9.17
2018-11-07T01:11:38.084Z,9.22
2018-11-07T01:12:38.129Z,9.19
2018-11-07T01:14:30.795Z,9.48
2018-11-07T01:15:30.685Z,9.44
2018-11-07T01:17:23.501Z,9.49
2018-11-07T01:18:23.429Z,9.52
2018-11-07T01:20:16.236Z,9.37
2018-11-07T01:21:16.105Z,9.37
2018-11-07T01:23:09.161Z,9.53
2018-11-07T01:24:08.978Z,9.56
2018-11-07T01:26:00.888Z,9.62
2018-11-07T01:27:00.788Z,9.65
2018-11-07T01:28:52.769Z,9.55
2018-11-07T01:29:52.728Z,9.48
2018-11-07T01:31:44.762Z,9.52
2018-11-07T01:32:44.542Z,9.56
2018-11-07T01:34:36.301Z,9.45
2018-11-07T01:35:36.266Z,9.44
2018-11-07T01:37:28.092Z,9.40
2018-11-07T01:38:28.007Z,9.35
2018-11-07T01:40:19.963Z,9.17
2018-11-07T01:41:19.826Z,9.23
2018-11-07T01:43:11.729Z,9.22
2018-11-07T01:44:11.654Z,9.04
2018-11-07T01:46:03.618Z,9.10
2018-11-07T01:47:03.841Z,9.04
2018-11-07T01:48:55.878Z,8.97
2018-11-07T01:49:55.407Z,8.94
2018-11-07T01:51:47.412Z,8.82
2018-11-07T01:52:47.309Z,8.79
2018-11-07T01:54:39.454Z,8.78
2018-11-07T01:55:39.260Z,8.68
2018-11-07T01:57:31.132Z,8.68
2018-11-07T01:58:31.057Z,8.61
2018-11-07T02:00:22.925Z,8.71
2018-11-07T02:01:22.891Z,8.57
2018-11-07T02:03:14.756Z,8.55
2018-11-07T02:04:14.631Z,8.67
2018-11-07T02:06:07.536Z,8.67
2018-11-07T02:07:07.461Z,8.70
2018-11-07T02:08:59.234Z,8.63
2018-11-07T02:09:59.121Z,8.73
2018-11-07T02:11:51.095Z,8.71
2018-11-07T02:12:51.005Z,8.76
2018-11-07T02:14:42.894Z,8.83
2018-11-07T02:15:42.835Z,8.88
2018-11-07T02:17:34.729Z,8.94
2018-11-07T02:18:34.599Z,9.00
2018-11-07T02:20:26.688Z,8.96
2018-11-07T02:21:26.451Z,8.96
2018-11-07T02:23:18.669Z,8.83
2018-11-07T02:24:18.132Z,8.91
2018-11-07T02:26:10.108Z,8.82
2018-11-07T02:27:09.922Z,8.76
2018-11-07T02:29:03.019Z,8.78
2018-11-07T02:30:02.992Z,8.89
2018-11-07T02:31:54.889Z,8.89
2018-11-07T02:32:54.722Z,8.80
2018-11-07T02:34:46.652Z,8.65
2018-11-07T02:35:46.727Z,8.64
2018-11-07T02:37:38.468Z,8.80
2018-11-07T02:38:38.459Z,8.76
2018-11-07T02:40:31.338Z,8.76
2018-11-07T02:41:31.184Z,8.79
2018-11-07T02:43:23.308Z,8.71
2018-11-07T02:44:23.162Z,8.60
2018-11-07T02:46:14.888Z,8.54
2018-11-07T02:47:14.902Z,8.61
2018-11-07T02:49:06.687Z,8.67
2018-11-07T02:50:06.630Z,8.65
2018-11-07T02:51:58.573Z,8.55
2018-11-07T02:52:58.406Z,8.58
2018-11-07T02:54:50.299Z,8.49
2018-11-07T02:55:50.180Z,8.45
2018-11-07T02:57:42.160Z,8.29
2018-11-07T02:58:42.115Z,8.39
2018-11-07T03:00:33.935Z,8.54
2018-11-07T03:01:33.827Z,8.54
2018-11-07T03:03:25.892Z,8.57
2018-11-07T03:04:25.686Z,8.60
2018-11-07T03:06:18.512Z,8.61
2018-11-07T03:07:18.537Z,8.63
2018-11-07T03:09:10.531Z,8.61
2018-11-07T03:10:10.377Z,8.60
2018-11-07T03:12:03.258Z,8.49
2018-11-07T03:13:03.122Z,8.54
2018-11-07T03:14:55.062Z,8.42
2018-11-07T03:15:54.991Z,8.46
2018-11-07T03:17:46.869Z,8.42
2018-11-07T03:18:46.843Z,8.43
2018-11-07T03:20:38.874Z,8.54
2018-11-07T03:21:38.653Z,8.40
2018-11-07T03:23:31.062Z,8.29
2018-11-07T03:24:30.516Z,8.45
2018-11-07T03:26:22.461Z,8.55
2018-11-07T03:27:22.343Z,8.58
2018-11-07T03:29:14.323Z,8.50
2018-11-07T03:30:14.224Z,8.52
2018-11-07T03:32:06.735Z,8.45
2018-11-07T03:33:06.019Z,8.43
2018-11-07T03:34:58.108Z,8.36
2018-11-07T03:35:57.942Z,8.37
2018-11-07T03:37:49.997Z,8.29
2018-11-07T03:38:49.915Z,8.31
2018-11-07T03:40:41.793Z,8.29
2018-11-07T03:41:41.739Z,8.43
2018-11-07T03:43:33.840Z,8.45
2018-11-07T03:44:33.617Z,8.52
2018-11-07T03:46:25.415Z,8.61
2018-11-07T03:47:25.377Z,8.58
2018-11-07T03:49:17.364Z,8.70
2018-11-07T03:50:17.214Z,8.75
2018-11-07T03:52:09.096Z,8.75
2018-11-07T03:53:09.012Z,8.71
2018-11-07T03:55:00.873Z,8.83
2018-11-07T03:56:00.743Z,8.80
2018-11-07T03:57:52.797Z,8.73
2018-11-07T03:58:52.719Z,8.79
2018-11-07T04:00:44.687Z,8.73
2018-11-07T04:01:44.865Z,8.73
2018-11-07T04:03:36.584Z,8.76
2018-11-07T04:04:36.469Z,8.79
2018-11-07T04:06:28.248Z,8.73
2018-11-07T04:07:28.156Z,8.70
2018-11-07T04:09:20.083Z,8.79
2018-11-07T04:10:19.970Z,8.86
2018-11-07T04:12:11.914Z,8.79
2018-11-07T04:13:11.816Z,8.82
2018-11-07T04:15:03.759Z,8.68
2018-11-07T04:16:03.658Z,8.70
2018-11-07T04:17:55.661Z,8.78
2018-11-07T04:18:55.645Z,8.80
2018-11-07T04:20:47.728Z,8.68
2018-11-07T04:21:47.630Z,8.73
2018-11-07T04:23:39.734Z,9.03
2018-11-07T04:24:39.561Z,9.00
2018-11-07T04:26:31.618Z,9.00
2018-11-07T04:27:31.568Z,8.98
2018-11-07T04:29:23.453Z,8.86
2018-11-07T04:30:23.391Z,8.89
2018-11-07T04:32:15.792Z,8.83
2018-11-07T04:33:15.179Z,8.89
2018-11-07T04:35:07.051Z,8.91
2018-11-07T04:36:06.947Z,9.12
2018-11-07T04:37:58.907Z,9.22
2018-11-07T04:38:58.837Z,9.04
2018-11-07T04:40:51.733Z,9.04
2018-11-07T04:41:51.528Z,9.17
2018-11-07T04:43:43.703Z,9.22
2018-11-07T04:44:43.710Z,9.31
2018-11-07T04:46:35.469Z,9.31
2018-11-07T04:47:35.308Z,9.35
2018-11-07T04:49:28.191Z,9.40
2018-11-07T04:50:28.128Z,9.31
2018-11-07T04:52:19.935Z,9.32
2018-11-07T04:53:19.857Z,9.37
2018-11-07T04:55:12.701Z,9.27
2018-11-07T04:56:12.612Z,9.27
2018-11-07T04:58:05.462Z,9.41
2018-11-07T04:59:05.437Z,9.40
2018-11-07T05:00:57.356Z,9.67
2018-11-07T05:01:57.114Z,9.53
2018-11-07T05:03:49.165Z,9.58
2018-11-07T05:04:48.976Z,9.62
2018-11-07T05:06:40.833Z,9.67
2018-11-07T05:07:40.850Z,9.65
2018-11-07T05:09:32.778Z,9.65
2018-11-07T05:10:32.739Z,9.63
2018-11-07T05:12:24.717Z,9.60
2018-11-07T05:13:24.615Z,9.62
2018-11-07T05:15:16.754Z,9.60
2018-11-07T05:16:16.544Z,9.62
2018-11-07T05:18:08.483Z,9.50
2018-11-07T05:19:08.340Z,9.50
2018-11-07T05:21:00.439Z,9.45
2018-11-07T05:22:00.348Z,9.45
2018-11-07T05:23:53.315Z,9.45
2018-11-07T05:24:53.112Z,9.42
2018-11-07T05:26:45.052Z,9.42
2018-11-07T05:27:45.036Z,9.44
2018-11-07T05:29:36.814Z,9.49
2018-11-07T05:30:36.704Z,9.50
2018-11-07T05:32:28.599Z,9.42
2018-11-07T05:33:28.534Z,9.38
2018-11-07T05:35:20.402Z,9.32
2018-11-07T05:36:20.265Z,9.32
2018-11-07T05:38:12.283Z,9.40
2018-11-07T05:39:12.123Z,9.38
2018-11-07T05:41:04.048Z,9.44
2018-11-07T05:42:04.021Z,9.38
2018-11-07T05:43:57.032Z,9.35
2018-11-07T05:44:56.790Z,9.42
2018-11-07T05:46:48.704Z,9.42
2018-11-07T05:47:48.706Z,9.48
2018-11-07T05:49:40.573Z,9.52
2018-11-07T05:50:40.524Z,9.49
2018-11-07T05:52:32.294Z,9.41
2018-11-07T05:53:32.292Z,9.45
2018-11-07T05:55:24.182Z,9.38
2018-11-07T05:56:24.099Z,9.38
2018-11-07T05:58:16.149Z,9.37
2018-11-07T05:59:16.051Z,9.27
2018-11-07T06:01:09.074Z,9.19
2018-11-07T06:02:08.977Z,9.22
2018-11-07T06:04:00.941Z,9.04
2018-11-07T06:05:00.820Z,8.98
2018-11-07T06:06:52.760Z,9.10
2018-11-07T06:07:52.602Z,9.06
2018-11-07T06:09:45.643Z,9.19
2018-11-07T06:10:45.450Z,9.20
2018-11-07T06:12:38.307Z,9.15
2018-11-07T06:13:38.180Z,9.03
2018-11-07T06:15:31.163Z,9.22
2018-11-07T06:16:31.115Z,9.03
2018-11-07T06:18:22.911Z,8.97
2018-11-07T06:19:22.856Z,9.04
2018-11-07T06:21:14.930Z,9.00
2018-11-07T06:22:14.867Z,9.06
2018-11-07T06:24:06.852Z,9.03
2018-11-07T06:25:06.784Z,9.04
2018-11-07T06:26:58.730Z,9.15
2018-11-07T06:27:58.704Z,9.16
2018-11-07T06:29:50.563Z,9.13
2018-11-07T06:30:50.468Z,9.15
2018-11-07T06:32:43.393Z,9.27
2018-11-07T06:33:43.213Z,9.20
2018-11-07T06:35:36.162Z,9.23
2018-11-07T06:36:36.188Z,9.20
2018-11-07T06:38:28.909Z,9.22
2018-11-07T06:39:28.845Z,9.40
2018-11-07T06:41:21.765Z,9.30
2018-11-07T06:42:21.689Z,9.32
2018-11-07T06:44:13.582Z,9.16
2018-11-07T06:45:13.442Z,9.19
2018-11-07T06:47:05.191Z,9.24
2018-11-07T06:48:05.120Z,9.35
2018-11-07T06:49:57.048Z,9.40
2018-11-07T06:50:56.927Z,9.56
2018-11-07T06:52:49.053Z,9.48
2018-11-07T06:53:48.848Z,9.62
2018-11-07T06:55:40.888Z,9.63
2018-11-07T06:56:40.706Z,9.65
2018-11-07T06:58:33.714Z,9.75
2018-11-07T06:59:33.585Z,9.73
2018-11-07T07:01:25.828Z,9.81
2018-11-07T07:02:25.608Z,9.78
2018-11-07T07:04:17.690Z,9.75
2018-11-07T07:05:17.411Z,9.80
2018-11-07T07:07:09.313Z,9.86
2018-11-07T07:08:09.131Z,9.92
2018-11-07T07:10:01.432Z,9.99
2018-11-07T07:11:01.484Z,10.07
2018-11-07T07:12:54.235Z,10.09
2018-11-07T07:13:54.286Z,9.93
2018-11-07T07:15:47.025Z,9.96
2018-11-07T07:16:46.883Z,10.10
2018-11-07T07:18:38.898Z,10.22
2018-11-07T07:19:38.805Z,10.34
2018-11-07T07:21:30.722Z,10.28
2018-11-07T07:22:30.557Z,10.35
2018-11-07T07:24:22.558Z,10.51
2018-11-07T07:25:22.458Z,10.32
2018-11-07T07:27:15.349Z,10.47
2018-11-07T07:28:15.238Z,10.35
2018-11-07T07:30:08.179Z,10.51
2018-11-07T07:31:08.194Z,10.60
2018-11-07T07:33:00.062Z,10.72
2018-11-07T07:33:59.999Z,10.83
2018-11-07T07:35:51.838Z,10.94
2018-11-07T07:36:51.785Z,11.06
2018-11-07T07:38:44.639Z,11.19
2018-11-07T07:39:44.466Z,11.36
2018-11-07T07:41:37.433Z,11.39
2018-11-07T07:42:37.255Z,11.42
2018-11-07T07:44:30.117Z,11.56
2018-11-07T07:45:30.111Z,11.70
2018-11-07T07:47:21.903Z,11.88
2018-11-07T07:48:21.799Z,12.03
2018-11-07T07:50:14.705Z,12.18
2018-11-07T07:51:14.601Z,12.33
2018-11-07T07:53:06.448Z,12.49
2018-11-07T07:54:06.426Z,12.62
2018-11-07T07:55:59.462Z,12.91
2018-11-07T07:56:59.358Z,12.95
2018-11-07T07:58:51.201Z,13.22
2018-11-07T07:59:51.116Z,13.32
2018-11-07T08:01:44.206Z,13.55
2018-11-07T08:02:43.921Z,13.59
2018-11-07T08:04:36.811Z,13.81
2018-11-07T08:05:36.726Z,13.83
2018-11-07T08:07:29.597Z,13.80
2018-11-07T08:08:29.532Z,13.83
2018-11-07T08:10:21.502Z,13.83
2018-11-07T08:11:21.377Z,14.02
2018-11-07T08:13:13.252Z,14.42
2018-11-07T08:14:13.152Z,14.75
2018-11-07T08:16:05.212Z,15.05
2018-11-07T08:17:05.045Z,15.12
2018-11-07T08:18:57.006Z,15.07
2018-11-07T08:19:56.947Z,14.98
2018-11-07T08:21:48.906Z,15.31
2018-11-07T08:22:48.812Z,15.48
2018-11-07T08:24:40.795Z,15.67
2018-11-07T08:25:40.755Z,15.84
2018-11-07T08:27:33.645Z,15.77
2018-11-07T08:28:33.562Z,15.98
2018-11-07T08:30:25.692Z,15.86
2018-11-07T08:31:25.570Z,15.91
2018-11-07T08:33:17.384Z,15.85
2018-11-07T08:34:17.391Z,16.04
2018-11-07T08:36:09.331Z,16.30
2018-11-07T08:37:09.233Z,16.32
2018-11-07T08:39:01.175Z,16.65
2018-11-07T08:40:00.986Z,16.80
2018-11-07T08:41:54.090Z,17.10
2018-11-07T08:42:53.896Z,17.27
2018-11-07T08:44:45.748Z,17.76
2018-11-07T08:45:45.725Z,17.79
2018-11-07T08:47:37.647Z,17.45
2018-11-07T08:48:37.594Z,17.47
2018-11-07T08:50:29.527Z,18.11
2018-11-07T08:51:29.466Z,17.77
2018-11-07T08:53:21.316Z,17.70
2018-11-07T08:54:21.223Z,17.53
2018-11-07T08:56:13.084Z,18.21
2018-11-07T08:57:12.987Z,17.83
2018-11-07T08:59:04.937Z,18.16
2018-11-07T09:00:04.839Z,18.29
2018-11-07T09:01:56.785Z,18.86
2018-11-07T09:02:56.691Z,18.74
2018-11-07T09:04:48.637Z,18.86
2018-11-07T09:05:48.508Z,19.09
2018-11-07T09:07:40.656Z,19.35
2018-11-07T09:08:40.536Z,19.23
2018-11-07T09:10:32.425Z,19.20
2018-11-07T09:11:32.374Z,19.13
2018-11-07T09:13:24.200Z,19.35
2018-11-07T09:14:24.131Z,19.64
2018-11-07T09:16:16.269Z,19.38
2018-11-07T09:17:16.100Z,18.90
2018-11-07T09:19:08.155Z,18.94
2018-11-07T09:20:08.030Z,19.05
2018-11-07T09:22:09.943Z,19.53
2018-11-07T09:23:09.814Z,19.82
2018-11-07T09:25:01.632Z,20.20
2018-11-07T09:26:01.561Z,20.44
2018-11-07T09:27:53.433Z,20.54
2018-11-07T09:28:53.367Z,20.48
2018-11-07T09:30:46.299Z,20.58
2018-11-07T09:31:46.217Z,20.35
2018-11-07T09:33:38.085Z,20.34
2018-11-07T09:34:38.005Z,20.54
2018-11-07T09:36:29.945Z,20.30
2018-11-07T09:37:29.778Z,19.89
2018-11-07T09:39:21.721Z,20.35
2018-11-07T09:40:21.592Z,20.46
2018-11-07T09:42:13.418Z,19.60
2018-11-07T09:43:13.408Z,19.55
2018-11-07T09:45:05.209Z,19.23
2018-11-07T09:46:05.250Z,19.34
2018-11-07T09:47:57.171Z,19.50
2018-11-07T09:48:57.017Z,19.57
2018-11-07T09:50:49.033Z,20.01
2018-11-07T09:51:48.956Z,20.00
2018-11-07T09:53:40.847Z,19.78
2018-11-07T09:54:40.702Z,20.01
2018-11-07T09:56:32.589Z,20.53
2018-11-07T09:57:32.497Z,20.53
2018-11-07T09:59:24.726Z,20.48
2018-11-07T10:00:24.350Z,20.26
2018-11-07T10:02:16.132Z,19.98
2018-11-07T10:03:16.031Z,19.89
2018-11-07T10:05:07.886Z,20.08
2018-11-07T10:06:07.788Z,19.95
2018-11-07T10:07:59.665Z,19.76
2018-11-07T10:08:59.642Z,19.64
2018-11-07T10:10:51.555Z,19.39
2018-11-07T10:11:51.341Z,19.53
2018-11-07T10:13:43.288Z,19.38
2018-11-07T10:14:43.074Z,19.23
2018-11-07T10:16:34.988Z,19.38
2018-11-07T10:17:34.909Z,19.17
2018-11-07T10:19:27.879Z,19.13
2018-11-07T10:20:27.855Z,18.96
2018-11-07T10:22:19.775Z,18.82
2018-11-07T10:23:19.666Z,18.91
2018-11-07T10:25:11.606Z,18.89
2018-11-07T10:26:11.466Z,19.16
2018-11-07T10:28:03.758Z,19.17
2018-11-07T10:29:03.445Z,19.09
2018-11-07T10:30:55.152Z,19.27
2018-11-07T10:31:55.069Z,19.07
2018-11-07T10:33:46.936Z,18.90
2018-11-07T10:34:46.856Z,18.42
2018-11-07T10:36:38.738Z,17.60
2018-11-07T10:37:38.666Z,17.60
2018-11-07T10:39:30.510Z,17.51
2018-11-07T10:40:30.420Z,17.45
2018-11-07T10:42:22.343Z,17.09
2018-11-07T10:43:22.239Z,17.00
2018-11-07T10:45:14.145Z,16.84
2018-11-07T10:46:14.201Z,16.80
2018-11-07T10:48:06.567Z,16.69
2018-11-07T10:49:06.474Z,16.72
2018-11-07T10:50:58.375Z,16.66
2018-11-07T10:51:58.325Z,16.84
2018-11-07T10:53:50.382Z,16.88
2018-11-07T10:54:50.283Z,16.85
2018-11-07T10:56:42.112Z,16.87
2018-11-07T10:57:41.973Z,16.84
2018-11-07T10:59:33.815Z,16.99
2018-11-07T11:00:33.779Z,17.22
2018-11-07T11:02:25.768Z,17.09
2018-11-07T11:03:25.613Z,17.10
2018-11-07T11:05:17.646Z,17.00
2018-11-07T11:06:17.421Z,17.05
2018-11-07T11:08:09.224Z,17.14
2018-11-07T11:09:09.157Z,17.05
2018-11-07T11:11:00.943Z,17.05
2018-11-07T11:12:00.824Z,17.05
2018-11-07T11:13:52.755Z,17.15
2018-11-07T11:14:52.600Z,17.05
2018-11-07T11:16:44.696Z,17.07
2018-11-07T11:17:44.569Z,17.06
2018-11-07T11:19:36.608Z,16.99
2018-11-07T11:20:36.571Z,17.06
2018-11-07T11:22:28.326Z,17.02
2018-11-07T11:23:28.282Z,17.20
2018-11-07T11:25:20.247Z,17.25
2018-11-07T11:26:20.221Z,17.09
2018-11-07T11:28:11.961Z,17.09
2018-11-07T11:29:11.863Z,17.02
2018-11-07T11:31:03.822Z,16.91
2018-11-07T11:32:03.677Z,16.88
2018-11-07T11:33:56.231Z,16.75
2018-11-07T11:34:55.543Z,16.85
2018-11-07T11:36:47.358Z,16.78
2018-11-07T11:37:47.235Z,16.75
2018-11-07T11:39:39.300Z,16.63
2018-11-07T11:40:39.294Z,16.52
2018-11-07T11:42:31.344Z,16.45
2018-11-07T11:43:31.142Z,16.45
2018-11-07T11:45:23.003Z,16.54
2018-11-07T11:46:22.941Z,16.52
2018-11-07T11:48:14.992Z,16.62
2018-11-07T11:49:15.002Z,16.54
2018-11-07T11:51:06.856Z,16.66
2018-11-07T11:52:06.722Z,16.63
2018-11-07T11:53:58.685Z,16.67
2018-11-07T11:54:58.552Z,16.69
2018-11-07T11:56:50.537Z,16.67
2018-11-07T11:57:50.476Z,16.78
2018-11-07T11:59:43.651Z,16.63
2018-11-07T12:00:43.293Z,16.63
2018-11-07T12:02:35.241Z,16.75
2018-11-07T12:03:35.140Z,16.80
2018-11-07T12:05:27.276Z,16.82
2018-11-07T12:06:27.309Z,16.85
2018-11-07T12:08:19.233Z,16.91
2018-11-07T12:09:19.132Z,16.91
2018-11-07T12:11:11.172Z,16.99
2018-11-07T12:12:11.186Z,17.03
2018-11-07T12:14:02.893Z,17.10
2018-11-07T12:15:03.036Z,17.10
2018-11-07T12:16:54.724Z,17.07
2018-11-07T12:17:54.743Z,17.05
2018-11-07T12:19:46.641Z,16.99
2018-11-07T12:20:46.502Z,17.00
2018-11-07T12:22:38.574Z,16.78
2018-11-07T12:23:38.390Z,16.73
2018-11-07T12:25:30.386Z,16.73
2018-11-07T12:26:30.392Z,16.70
2018-11-07T12:28:22.325Z,16.77
2018-11-07T12:29:22.270Z,16.62
2018-11-07T12:31:14.171Z,16.75
2018-11-07T12:32:14.042Z,16.82
2018-11-07T12:34:06.976Z,16.59
2018-11-07T12:35:06.864Z,16.52
2018-11-07T12:36:58.830Z,16.62
2018-11-07T12:37:58.670Z,16.70
2018-11-07T12:39:50.623Z,16.70
2018-11-07T12:40:50.567Z,16.81
2018-11-07T12:42:42.631Z,16.84
2018-11-07T12:43:42.486Z,16.87
2018-11-07T12:45:34.335Z,16.75
2018-11-07T12:46:34.359Z,16.66
2018-11-07T12:48:26.066Z,16.77
2018-11-07T12:49:25.956Z,16.72
2018-11-07T12:51:17.792Z,16.54
2018-11-07T12:52:17.779Z,16.55
2018-11-07T12:54:09.494Z,16.54
2018-11-07T12:55:09.432Z,16.54
2018-11-07T12:57:01.513Z,16.41
2018-11-07T12:58:01.470Z,16.32
2018-11-07T12:59:53.183Z,16.33
2018-11-07T13:00:53.055Z,16.25
2018-11-07T13:02:44.933Z,16.32
2018-11-07T13:03:45.026Z,16.36
2018-11-07T13:05:36.839Z,16.36
2018-11-07T13:06:36.690Z,16.37
2018-11-07T13:08:29.353Z,16.48
2018-11-07T13:09:29.039Z,16.50
2018-11-07T13:11:21.099Z,16.47
2018-11-07T13:12:21.033Z,16.42
2018-11-07T13:14:12.954Z,16.45
2018-11-07T13:15:12.840Z,16.48
2018-11-07T13:17:04.772Z,16.45
2018-11-07T13:18:04.744Z,16.37
2018-11-07T13:19:56.563Z,16.40
2018-11-07T13:20:56.566Z,16.42
2018-11-07T13:22:48.522Z,16.36
2018-11-07T13:23:48.495Z,16.40
2018-11-07T13:25:40.505Z,16.42
2018-11-07T13:26:40.364Z,16.42
2018-11-07T13:28:32.512Z,16.36
2018-11-07T13:29:32.204Z,16.37
2018-11-07T13:31:24.109Z,16.42
2018-11-07T13:32:24.049Z,16.32
2018-11-07T13:34:16.123Z,16.10
2018-11-07T13:35:15.930Z,16.13
2018-11-07T13:37:07.953Z,16.16
2018-11-07T13:38:08.028Z,16.26
2018-11-07T13:39:59.565Z,16.14
2018-11-07T13:40:59.532Z,16.17
2018-11-07T13:42:51.466Z,16.18
2018-11-07T13:43:51.472Z,16.17
2018-11-07T13:45:44.328Z,16.10
2018-11-07T13:46:44.196Z,16.04
2018-11-07T13:48:37.113Z,16.07
2018-11-07T13:49:37.026Z,16.01
2018-11-07T13:51:28.944Z,15.98
2018-11-07T13:52:28.871Z,15.85
2018-11-07T13:54:20.754Z,16.03
2018-11-07T13:55:20.724Z,16.08
2018-11-07T13:57:13.686Z,16.03
2018-11-07T13:58:13.516Z,16.08
2018-11-07T14:00:06.436Z,15.86
2018-11-07T14:01:06.338Z,15.91
2018-11-07T14:02:58.377Z,15.89
2018-11-07T14:03:58.293Z,15.93
2018-11-07T14:05:50.359Z,15.91
2018-11-07T14:06:50.104Z,15.91
2018-11-07T14:08:42.342Z,15.92
2018-11-07T14:09:42.227Z,15.93
2018-11-07T14:11:35.121Z,15.88
2018-11-07T14:12:35.065Z,16.07
2018-11-07T14:14:27.057Z,15.86
2018-11-07T14:15:26.921Z,15.84
2018-11-07T14:17:18.860Z,15.93
2018-11-07T14:18:18.788Z,15.91
2018-11-07T14:20:10.704Z,15.81
2018-11-07T14:21:10.710Z,15.92
2018-11-07T14:23:02.675Z,15.88
2018-11-07T14:24:02.487Z,15.91
2018-11-07T14:25:54.386Z,15.93
2018-11-07T14:26:54.320Z,15.93
2018-11-07T14:28:46.257Z,15.89
2018-11-07T14:29:46.068Z,15.80
2018-11-07T14:31:38.186Z,15.85
2018-11-07T14:32:37.954Z,15.89
2018-11-07T14:34:29.861Z,15.85
2018-11-07T14:35:29.856Z,15.99
2018-11-07T14:37:21.719Z,15.96
2018-11-07T14:38:21.533Z,15.88
2018-11-07T14:40:13.558Z,15.91
2018-11-07T14:41:13.401Z,15.89
2018-11-07T14:43:06.292Z,15.89
2018-11-07T14:44:06.197Z,15.91
2018-11-07T14:45:59.136Z,15.84
2018-11-07T14:46:58.995Z,15.89
2018-11-07T14:48:51.054Z,15.80
2018-11-07T14:49:51.019Z,15.81
2018-11-07T14:51:43.888Z,15.80
2018-11-07T14:52:43.761Z,15.73
2018-11-07T14:54:36.710Z,15.66
2018-11-07T14:55:36.690Z,15.67
2018-11-07T14:57:28.486Z,15.66
2018-11-07T14:58:28.360Z,15.58
2018-11-07T15:00:20.514Z,15.68
2018-11-07T15:01:20.463Z,15.62
2018-11-07T15:03:12.348Z,15.66
2018-11-07T15:04:12.149Z,15.66
2018-11-07T15:06:04.150Z,15.58
2018-11-07T15:07:04.068Z,15.48
2018-11-07T15:08:56.076Z,15.44
2018-11-07T15:09:55.892Z,15.40
2018-11-07T15:11:48.006Z,15.31
2018-11-07T15:12:47.759Z,15.30
2018-11-07T15:14:39.576Z,15.34
2018-11-07T15:15:39.698Z,15.31
2018-11-07T15:17:31.361Z,15.28
2018-11-07T15:18:31.310Z,15.19
2018-11-07T15:20:23.088Z,15.18
2018-11-07T15:21:23.055Z,15.16
2018-11-07T15:23:14.892Z,14.98
2018-11-07T15:24:14.773Z,15.05
2018-11-07T15:26:06.769Z,15.00
2018-11-07T15:27:06.603Z,14.95
2018-11-07T15:28:58.505Z,14.74
2018-11-07T15:29:58.424Z,14.86
2018-11-07T15:31:51.456Z,14.60
2018-11-07T15:32:51.345Z,14.60
2018-11-07T15:34:43.427Z,14.53
2018-11-07T15:35:43.129Z,14.44
2018-11-07T15:37:35.112Z,14.27
2018-11-07T15:38:35.015Z,14.34
2018-11-07T15:40:26.918Z,14.21
2018-11-07T15:41:26.829Z,14.19
2018-11-07T15:43:18.810Z,14.21
2018-11-07T15:44:18.864Z,14.21
2018-11-07T15:46:10.756Z,14.16
2018-11-07T15:47:10.810Z,14.20
2018-11-07T15:49:02.736Z,14.05
2018-11-07T15:50:02.574Z,14.04
2018-11-07T15:51:54.411Z,13.98
2018-11-07T15:52:54.375Z,13.86
2018-11-07T15:54:46.260Z,13.84
2018-11-07T15:55:46.304Z,13.75
2018-11-07T15:57:38.671Z,13.62
2018-11-07T15:58:38.048Z,13.63
2018-11-07T16:00:29.953Z,13.48
2018-11-07T16:01:29.881Z,13.54
2018-11-07T16:03:21.875Z,13.46
2018-11-07T16:04:21.794Z,13.55
2018-11-07T16:06:13.830Z,13.47
2018-11-07T16:07:13.692Z,13.24
2018-11-07T16:09:05.872Z,13.25
2018-11-07T16:10:05.783Z,13.21
2018-11-07T16:11:58.715Z,13.12
2018-11-07T16:12:58.701Z,13.06
2018-11-07T16:14:50.698Z,12.98
2018-11-07T16:15:50.508Z,12.95
2018-11-07T16:17:43.484Z,12.89
2018-11-07T16:18:43.350Z,12.95
2018-11-07T16:20:35.782Z,12.84
2018-11-07T16:21:35.372Z,12.87
2018-11-07T16:23:28.038Z,12.70
2018-11-07T16:24:27.547Z,12.71
2018-11-07T16:26:19.405Z,12.66
2018-11-07T16:27:19.223Z,12.63
2018-11-07T16:29:11.075Z,12.58
2018-11-07T16:30:11.328Z,12.54
2018-11-07T16:32:03.380Z,12.48
2018-11-07T16:33:02.856Z,12.36
2018-11-07T16:34:55.037Z,12.38
2018-11-07T16:35:54.681Z,12.33
2018-11-07T16:37:46.891Z,12.19
2018-11-07T16:38:46.835Z,12.25
2018-11-07T16:40:38.822Z,12.15
2018-11-07T16:41:38.814Z,12.07
2018-11-07T16:43:30.637Z,12.01
2018-11-07T16:44:30.466Z,12.04
2018-11-07T16:46:23.408Z,11.93
2018-11-07T16:47:23.311Z,11.94
2018-11-07T16:49:15.185Z,12.12
2018-11-07T16:50:15.179Z,12.16
2018-11-07T16:52:07.178Z,12.12
2018-11-07T16:53:07.121Z,12.08
2018-11-07T16:54:58.984Z,12.15
2018-11-07T16:55:58.695Z,12.16
2018-11-07T16:57:50.680Z,12.15
2018-11-07T16:58:50.767Z,12.08
2018-11-07T17:00:43.014Z,12.00
2018-11-07T17:01:42.429Z,11.87
2018-11-07T17:03:34.327Z,11.75
2018-11-07T17:04:34.142Z,11.74
2018-11-07T17:06:27.019Z,11.74
2018-11-07T17:07:26.888Z,11.64
2018-11-07T17:09:18.897Z,11.63
2018-11-07T17:10:18.689Z,11.60
2018-11-07T17:12:10.570Z,11.49
2018-11-07T17:13:10.430Z,11.46
2018-11-07T17:15:02.416Z,11.46
2018-11-07T17:16:02.300Z,11.39
2018-11-07T17:17:54.090Z,11.30
2018-11-07T17:18:54.068Z,11.30
2018-11-07T17:20:45.957Z,11.19
2018-11-07T17:21:45.941Z,11.27
2018-11-07T17:23:38.027Z,11.27
2018-11-07T17:24:37.824Z,11.31
2018-11-07T17:26:29.615Z,11.31
2018-11-07T17:27:29.575Z,11.36
2018-11-07T17:29:21.517Z,11.39
2018-11-07T17:30:21.414Z,11.27
2018-11-07T17:32:13.400Z,11.27
2018-11-07T17:33:13.174Z,11.28
2018-11-07T17:35:05.286Z,11.42
2018-11-07T17:36:05.120Z,11.33
2018-11-07T17:37:57.041Z,11.16
2018-11-07T17:38:56.945Z,11.23
2018-11-07T17:40:48.735Z,11.09
2018-11-07T17:41:48.670Z,11.02
2018-11-07T17:43:40.874Z,10.95
2018-11-07T17:44:40.718Z,10.99
2018-11-07T17:46:32.674Z,10.95
2018-11-07T17:47:32.527Z,10.78
2018-11-07T17:49:24.697Z,10.91
2018-11-07T17:50:24.686Z,10.84
2018-11-07T17:52:16.338Z,10.84
2018-11-07T17:53:16.243Z,10.94
2018-11-07T17:55:08.228Z,10.94
2018-11-07T17:56:08.155Z,10.95
2018-11-07T17:58:00.104Z,10.98
2018-11-07T17:59:00.010Z,10.91
2018-11-07T18:00:51.739Z,10.88
2018-11-07T18:01:51.727Z,10.81
2018-11-07T18:03:43.737Z,10.73
2018-11-07T18:04:43.527Z,10.65
2018-11-07T18:06:35.498Z,10.65
2018-11-07T18:07:35.430Z,10.66
2018-11-07T18:09:27.329Z,10.93
2018-11-07T18:10:27.164Z,10.93
2018-11-07T18:12:18.942Z,11.01
2018-11-07T18:13:18.957Z,11.06
2018-11-07T18:15:10.873Z,11.08
2018-11-07T18:16:10.767Z,10.95
2018-11-07T18:18:02.716Z,10.81
2018-11-07T18:19:02.553Z,10.86
2018-11-07T18:20:54.793Z,10.81
2018-11-07T18:21:54.454Z,10.78
2018-11-07T18:23:46.505Z,10.75
2018-11-07T18:24:46.240Z,10.66
2018-11-07T18:26:38.089Z,10.63
2018-11-07T18:27:38.071Z,10.58
2018-11-07T18:29:30.059Z,10.55
2018-11-07T18:30:29.949Z,10.55
2018-11-07T18:32:21.847Z,10.46
2018-11-07T18:33:21.726Z,10.38
2018-11-07T18:35:13.712Z,10.51
2018-11-07T18:36:13.484Z,10.51
2018-11-07T18:38:05.704Z,10.47
2018-11-07T18:39:05.282Z,10.63
2018-11-07T18:40:57.159Z,10.60
2018-11-07T18:41:57.013Z,10.52